Time;durP1;ratioP1;P1;durP2;ratioP2;P2;SDS_P1;SDS_P2;PMS_P1;PMS_P2;Temp;Humidity;BMP_temperature;BMP_pressure;BME280_temperature;BME280_humidity;BME280_pressure;Samples;Min_cycle;Max_cycle;Signal;HPM_P1;HPM_P2
2022/06/18 00:00:26;;;;;;;5.55;4.93;;;18.60;99.90;;;;;;4789080;29;20047;-69
2022/06/18 00:02:52;;;;;;;5.30;4.80;;;18.60;99.90;;;;;;4805168;29;20187;-69
2022/06/18 00:05:20;;;;;;;6.25;4.47;;;18.50;99.90;;;;;;4804577;29;20122;-70
2022/06/18 00:07:50;;;;;;;5.30;4.80;;;18.50;99.90;;;;;;4804281;29;20126;-70
2022/06/18 00:10:20;;;;;;;5.55;4.28;;;18.50;99.90;;;;;;4785334;29;20055;-70
2022/06/18 00:15:34;;;;;;;8.95;4.75;;;18.50;99.90;;;;;;4780470;29;20051;-68
2022/06/18 00:18:00;;;;;;;5.55;4.88;;;18.50;99.90;;;;;;4779998;29;20125;-69
2022/06/18 00:20:30;;;;;;;6.43;4.72;;;18.40;99.90;;;;;;4796842;29;20054;-70
2022/06/18 00:22:59;;;;;;;5.60;5.05;;;18.40;99.90;;;;;;4794214;29;20063;-69
2022/06/18 00:25:38;;;;;;;5.55;5.03;;;18.30;99.90;;;;;;4783006;29;20146;-69
2022/06/18 00:28:11;;;;;;;5.82;5.10;;;18.30;99.90;;;;;;4786567;29;20050;-70
2022/06/18 00:30:36;;;;;;;7.32;5.47;;;18.30;99.90;;;;;;4780654;29;20238;-70
2022/06/18 00:33:02;;;;;;;11.95;5.50;;;18.30;99.90;;;;;;4782578;29;20054;-69
2022/06/18 00:35:28;;;;;;;5.85;5.18;;;18.20;99.90;;;;;;4782806;29;20051;-69
2022/06/18 00:38:04;;;;;;;7.32;6.00;;;18.20;99.90;;;;;;4804267;29;20538;-68
2022/06/18 00:40:32;;;;;;;6.13;5.53;;;18.20;99.90;;;;;;4803291;29;20123;-70
2022/06/18 00:43:03;;;;;;;6.32;5.72;;;18.20;99.90;;;;;;4795479;29;20046;-70
2022/06/18 00:45:30;;;;;;;7.72;5.45;;;18.20;99.90;;;;;;4786795;29;20122;-69
2022/06/18 00:48:06;;;;;;;8.55;6.00;;;18.10;99.90;;;;;;4782075;29;20502;-70
2022/06/18 00:50:43;;;;;;;6.63;6.03;;;18.10;99.90;;;;;;4766610;29;20119;-69
2022/06/18 00:53:36;;;;;;;7.88;5.80;;;18.10;99.90;;;;;;4788252;29;20058;-69
2022/06/18 00:56:31;;;;;;;8.57;6.13;;;18.10;99.90;;;;;;4746300;29;20067;-69
2022/06/18 00:59:18;;;;;;;7.40;6.15;;;18.00;99.90;;;;;;4774297;29;20469;-68
2022/06/18 01:01:47;;;;;;;9.40;5.95;;;18.00;99.90;;;;;;4780865;29;20146;-70
2022/06/18 01:04:22;;;;;;;6.82;6.22;;;18.00;99.90;;;;;;4780972;29;20070;-70
2022/06/18 01:06:48;;;;;;;8.38;6.38;;;18.10;99.90;;;;;;4779077;29;20062;-70
2022/06/18 01:09:16;;;;;;;5.78;5.28;;;18.00;99.90;;;;;;4796318;29;20043;-69
2022/06/18 01:11:45;;;;;;;7.53;5.95;;;18.00;99.90;;;;;;4800676;29;20046;-71
2022/06/18 01:14:15;;;;;;;6.90;6.30;;;18.00;99.90;;;;;;4799213;29;20061;-70
2022/06/18 01:16:41;;;;;;;8.73;6.40;;;18.00;99.90;;;;;;4786894;29;20057;-69
2022/06/18 01:19:13;;;;;;;10.57;6.25;;;17.90;99.90;;;;;;4805440;29;20424;-69
2022/06/18 01:21:59;;;;;;;8.55;6.40;;;17.90;99.90;;;;;;4788639;29;20051;-67
2022/06/18 01:24:38;;;;;;;11.85;7.00;;;17.90;99.90;;;;;;4804028;29;20082;-70
2022/06/18 01:27:05;;;;;;;6.55;5.93;;;18.00;99.90;;;;;;4804843;29;20047;-70
2022/06/18 01:29:30;;;;;;;7.28;6.57;;;17.90;99.90;;;;;;4789019;29;20517;-71
2022/06/18 01:31:56;;;;;;;8.98;6.35;;;17.90;99.90;;;;;;4787665;29;20129;-72
2022/06/18 01:34:21;;;;;;;7.53;6.82;;;17.90;99.90;;;;;;4789580;29;20130;-69
2022/06/18 01:37:38;;;;;;;8.43;6.82;;;18.00;99.90;;;;;;4787154;29;20057;-69
2022/06/18 01:40:06;;;;;;;7.60;6.63;;;18.00;99.90;;;;;;4789330;29;20100;-70
2022/06/18 01:42:45;;;;;;;9.10;6.72;;;18.00;99.90;;;;;;4797261;29;20445;-69
2022/06/18 01:45:27;;;;;;;8.70;6.50;;;18.00;99.90;;;;;;4787019;29;20050;-69
2022/06/18 01:48:19;;;;;;;7.28;6.65;;;18.10;99.90;;;;;;4785867;29;20089;-69
2022/06/18 01:50:52;;;;;;;7.10;6.40;;;18.00;99.90;;;;;;4804602;29;20058;-70
2022/06/18 01:53:23;;;;;;;9.55;7.13;;;18.00;99.90;;;;;;4790710;29;20476;-71
2022/06/18 01:56:02;;;;;;;9.88;6.50;;;18.00;99.90;;;;;;4807814;29;20422;-67
2022/06/18 01:58:42;;;;;;;11.80;7.50;;;18.00;99.90;;;;;;4788634;29;20051;-69
2022/06/18 02:01:13;;;;;;;8.43;7.63;;;18.10;99.90;;;;;;4791327;29;20575;-68
2022/06/18 02:03:39;;;;;;;8.20;7.47;;;18.10;99.90;;;;;;4809456;29;20125;-70
2022/06/18 02:06:06;;;;;;;8.52;7.40;;;18.10;99.90;;;;;;4791472;29;20549;-69
2022/06/18 02:08:34;;;;;;;10.15;7.40;;;18.10;99.90;;;;;;4792253;29;20058;-68
2022/06/18 02:11:03;;;;;;;8.38;7.47;;;18.10;99.90;;;;;;4790798;29;20361;-68
2022/06/18 02:13:35;;;;;;;10.13;7.28;;;18.10;99.90;;;;;;4791469;29;20097;-70
2022/06/18 02:16:08;;;;;;;8.20;7.32;;;18.10;99.90;;;;;;4806401;29;20488;-69
2022/06/18 02:18:35;;;;;;;8.55;7.53;;;18.10;99.90;;;;;;4792655;29;20104;-70
2022/06/18 02:21:05;;;;;;;9.00;8.15;;;18.10;99.90;;;;;;4790581;29;20387;-68
2022/06/18 02:23:31;;;;;;;9.20;8.07;;;18.10;99.90;;;;;;4790081;29;20050;-69
2022/06/18 02:25:57;;;;;;;9.60;8.02;;;18.00;99.90;;;;;;4790528;29;20492;-69
2022/06/18 02:28:25;;;;;;;9.63;8.20;;;18.00;99.90;;;;;;4807108;29;20057;-70
2022/06/18 02:30:56;;;;;;;10.23;8.05;;;18.00;99.90;;;;;;4791926;29;20417;-72
2022/06/18 02:33:33;;;;;;;9.35;8.07;;;18.00;99.90;;;;;;4791074;29;20055;-69
2022/06/18 02:36:13;;;;;;;7.65;6.85;;;18.00;99.90;;;;;;4791527;29;20369;-70
2022/06/18 02:38:39;;;;;;;10.25;8.25;;;18.00;99.90;;;;;;4804934;29;20063;-69
2022/06/18 02:41:05;;;;;;;10.63;8.18;;;17.90;99.90;;;;;;4788839;29;20053;-70
2022/06/18 02:43:32;;;;;;;10.90;8.90;;;17.90;99.90;;;;;;4789939;29;20134;-69
2022/06/18 02:45:57;;;;;;;9.50;8.52;;;17.90;99.90;;;;;;4791383;29;20396;-70
2022/06/18 02:48:26;;;;;;;10.32;8.90;;;17.90;99.90;;;;;;4787367;29;20055;-70
2022/06/18 02:50:55;;;;;;;12.70;8.57;;;17.90;99.90;;;;;;4791754;29;20111;-70
2022/06/18 02:53:21;;;;;;;9.57;8.68;;;17.90;99.90;;;;;;4775995;29;20076;-72
2022/06/18 02:55:51;;;;;;;8.80;7.90;;;17.90;99.90;;;;;;4790502;29;20058;-72
2022/06/18 02:58:25;;;;;;;9.40;8.50;;;17.90;99.90;;;;;;4807256;29;20587;-68
2022/06/18 03:00:57;;;;;;;9.05;8.20;;;17.80;99.90;;;;;;4789845;29;20129;-69
2022/06/18 03:03:25;;;;;;;10.25;9.25;;;17.80;99.90;;;;;;4791296;29;20051;-72
2022/06/18 03:05:54;;;;;;;10.52;8.45;;;17.80;99.90;;;;;;4776454;29;20062;-71
2022/06/18 03:08:25;;;;;;;10.90;9.80;;;17.80;99.90;;;;;;4776153;29;20046;-70
2022/06/18 03:13:36;;;;;;;10.00;9.10;;;17.80;99.90;;;;;;4805443;29;20061;-69
2022/06/18 03:16:04;;;;;;;10.50;9.30;;;17.80;99.90;;;;;;4787871;29;20055;-69
2022/06/18 03:18:30;;;;;;;11.98;9.02;;;17.80;99.90;;;;;;4791611;29;20065;-71
2022/06/18 03:21:02;;;;;;;10.40;9.40;;;17.90;99.90;;;;;;4790218;29;20058;-70
2022/06/18 03:23:28;;;;;;;10.88;8.88;;;17.90;99.90;;;;;;4807583;29;20245;-69
2022/06/18 03:25:54;;;;;;;10.23;9.18;;;17.90;99.90;;;;;;4802062;29;20051;-69
2022/06/18 03:28:22;;;;;;;9.88;8.88;;;17.90;99.90;;;;;;4806249;29;20062;-69
2022/06/18 03:30:48;;;;;;;10.20;9.20;;;17.90;99.90;;;;;;4790987;29;20051;-70
2022/06/18 03:33:14;;;;;;;9.63;8.63;;;17.90;99.90;;;;;;4805087;29;20061;-69
2022/06/18 03:35:43;;;;;;;11.38;8.82;;;17.90;99.90;;;;;;4806727;29;20062;-72
2022/06/18 03:38:09;;;;;;;10.23;9.23;;;17.90;99.90;;;;;;4806417;29;20065;-70
2022/06/18 03:40:35;;;;;;;11.60;9.48;;;17.90;99.90;;;;;;4789287;29;20520;-68
2022/06/18 03:43:01;;;;;;;11.98;9.70;;;17.90;99.90;;;;;;4790100;29;20055;-69
2022/06/18 03:45:28;;;;;;;10.70;8.93;;;18.00;99.90;;;;;;4786360;29;20035;-69
2022/06/18 03:47:54;;;;;;;9.38;8.07;;;18.00;99.90;;;;;;4787612;29;20067;-70
2022/06/18 03:50:20;;;;;;;9.90;9.00;;;18.00;99.90;;;;;;4807323;29;20488;-73
2022/06/18 03:52:46;;;;;;;10.85;9.75;;;18.00;99.90;;;;;;4806257;29;20161;-69
2022/06/18 03:55:13;;;;;;;9.70;8.80;;;18.00;99.90;;;;;;4787260;29;20123;-71
2022/06/18 03:57:39;;;;;;;10.68;9.75;;;18.00;99.90;;;;;;4802893;29;20057;-70
2022/06/18 04:00:09;;;;;;;10.55;9.52;;;18.10;99.90;;;;;;4807155;29;20055;-69
2022/06/18 04:02:34;;;;;;;13.10;9.40;;;18.10;99.90;;;;;;4788619;29;20065;-70
2022/06/18 04:05:00;;;;;;;11.07;10.00;;;18.10;99.90;;;;;;4788698;29;20054;-70
2022/06/18 04:07:26;;;;;;;11.27;9.80;;;18.20;99.90;;;;;;4805281;29;20126;-70
2022/06/18 04:09:53;;;;;;;12.55;10.77;;;18.20;99.90;;;;;;4804645;29;20065;-68
2022/06/18 04:12:20;;;;;;;13.95;11.27;;;18.30;99.90;;;;;;4805584;29;20473;-70
2022/06/18 04:14:45;;;;;;;13.93;10.95;;;18.30;99.90;;;;;;4789963;29;20058;-69
2022/06/18 04:17:16;;;;;;;14.38;11.38;;;18.40;99.90;;;;;;4789051;29;20050;-70
2022/06/18 04:19:42;;;;;;;12.52;11.27;;;18.40;99.90;;;;;;4788620;29;20055;-68
2022/06/18 04:22:08;;;;;;;12.93;11.38;;;18.50;99.90;;;;;;4805495;29;20430;-71
2022/06/18 04:24:34;;;;;;;17.10;11.77;;;18.60;99.90;;;;;;4787151;29;20051;-70
2022/06/18 04:27:00;;;;;;;16.95;12.00;;;18.80;99.90;;;;;;4790324;29;20062;-71
2022/06/18 04:29:28;;;;;;;11.82;10.45;;;18.90;99.90;;;;;;4805907;29;20047;-70
2022/06/18 04:31:54;;;;;;;14.63;12.88;;;18.80;99.90;;;;;;4804888;29;20080;-70
2022/06/18 04:34:20;;;;;;;16.60;12.40;;;18.70;99.90;;;;;;4787875;29;20055;-69
2022/06/18 04:36:46;;;;;;;20.05;12.20;;;18.80;99.90;;;;;;4790047;29;20469;-68
2022/06/18 04:39:12;;;;;;;18.67;12.52;;;18.80;99.90;;;;;;4788514;29;20055;-70
2022/06/18 04:41:38;;;;;;;14.88;12.52;;;18.90;99.90;;;;;;4790133;29;20477;-69
2022/06/18 04:44:04;;;;;;;17.20;13.18;;;18.90;99.90;;;;;;4785624;29;20055;-69
2022/06/18 04:46:30;;;;;;;16.80;13.35;;;19.10;99.90;;;;;;4801960;29;20056;-70
2022/06/18 04:48:56;;;;;;;15.77;12.68;;;19.00;99.90;;;;;;4773185;29;20047;-70
2022/06/18 04:51:21;;;;;;;13.50;11.88;;;19.00;99.90;;;;;;4789342;29;20180;-70
2022/06/18 04:53:47;;;;;;;17.30;13.15;;;19.10;99.90;;;;;;4787389;29;20062;-70
2022/06/18 04:56:13;;;;;;;16.45;13.25;;;19.10;99.90;;;;;;4803901;29;20138;-70
2022/06/18 04:58:39;;;;;;;17.23;13.23;;;19.20;99.90;;;;;;4789844;29;20054;-71
2022/06/18 05:01:04;;;;;;;18.40;12.60;;;19.20;99.90;;;;;;4786737;29;20050;-69
2022/06/18 05:03:31;;;;;;;19.55;13.65;;;19.30;99.90;;;;;;4802539;29;20057;-70
2022/06/18 05:05:58;;;;;;;16.95;13.60;;;19.30;99.90;;;;;;4801738;29;20062;-69
2022/06/18 05:08:24;;;;;;;17.70;13.27;;;19.30;99.90;;;;;;4790310;29;20164;-69
2022/06/18 05:10:50;;;;;;;17.65;12.13;;;19.40;99.90;;;;;;4800600;29;20442;-70
2022/06/18 05:13:19;;;;;;;20.80;13.38;;;19.40;99.90;;;;;;4786577;30;20146;-70
2022/06/18 05:15:46;;;;;;;17.02;13.30;;;19.50;99.90;;;;;;4804803;29;20137;-71
2022/06/18 05:18:17;;;;;;;21.25;14.43;;;19.60;99.90;;;;;;4787843;29;20472;-68
2022/06/18 05:21:08;;;;;;;16.83;13.35;;;19.60;99.90;;;;;;4766598;30;20138;-70
2022/06/18 05:23:37;;;;;;;18.70;13.43;;;19.70;99.90;;;;;;4783839;29;20059;-70
2022/06/18 05:26:02;;;;;;;18.45;12.93;;;20.00;99.90;;;;;;4786966;29;20042;-69
2022/06/18 05:28:30;;;;;;;19.48;13.23;;;19.90;99.90;;;;;;4802862;29;20472;-71
2022/06/18 05:30:58;;;;;;;18.92;14.13;;;20.30;99.90;;;;;;4788282;29;20059;-70
2022/06/18 05:33:24;;;;;;;15.93;12.73;;;20.90;99.90;;;;;;4786883;29;20499;-70
2022/06/18 05:35:49;;;;;;;18.70;13.70;;;21.50;99.90;;;;;;4787391;29;20055;-69
2022/06/18 05:38:18;;;;;;;15.52;13.23;;;22.20;99.90;;;;;;4784239;29;20063;-70
2022/06/18 05:40:44;;;;;;;15.40;13.32;;;22.60;99.90;;;;;;4804728;29;20051;-69
2022/06/18 05:43:09;;;;;;;17.13;13.48;;;23.00;99.90;;;;;;4804722;29;20051;-69
2022/06/18 05:45:37;;;;;;;20.17;13.15;;;23.30;99.90;;;;;;4786350;29;20490;-70
2022/06/18 05:48:03;;;;;;;17.35;13.52;;;23.50;99.90;;;;;;4796812;29;20058;-68
2022/06/18 05:50:28;;;;;;;17.77;13.38;;;23.80;99.90;;;;;;4796146;29;20107;-70
2022/06/18 05:52:54;;;;;;;19.92;12.93;;;23.90;99.90;;;;;;4784441;29;20130;-71
2022/06/18 05:55:21;;;;;;;17.80;12.70;;;24.00;99.90;;;;;;4798602;29;20058;-69
2022/06/18 05:57:48;;;;;;;16.75;13.02;;;24.10;99.90;;;;;;4769668;29;20872;-70
2022/06/18 06:00:16;;;;;;;21.75;12.70;;;24.10;99.90;;;;;;4787197;29;20061;-70
2022/06/18 06:02:43;;;;;;;16.17;12.23;;;24.00;99.90;;;;;;4804669;29;20063;-69
2022/06/18 06:05:08;;;;;;;18.17;12.52;;;24.00;99.90;;;;;;4789357;29;20051;-70
2022/06/18 06:07:34;;;;;;;18.55;13.80;;;24.10;99.90;;;;;;4787643;29;20046;-69
2022/06/18 06:12:44;;;;;;;19.45;13.15;;;24.00;99.90;;;;;;4788057;29;20059;-68
2022/06/18 06:15:10;;;;;;;18.50;13.32;;;24.10;99.90;;;;;;4805344;29;20122;-67
2022/06/18 06:17:36;;;;;;;20.20;13.23;;;24.20;99.90;;;;;;4788845;29;20055;-69
2022/06/18 06:20:24;;;;;;;16.05;14.30;;;24.50;99.90;;;;;;4804953;29;20397;-68
2022/06/18 06:22:50;;;;;;;19.50;14.25;;;24.40;99.90;;;;;;4787299;30;20059;-68
2022/06/18 06:25:16;;;;;;;21.02;13.32;;;24.40;99.90;;;;;;4771556;30;20052;-68
2022/06/18 06:27:42;;;;;;;16.60;12.95;;;24.50;99.90;;;;;;4771016;30;20055;-69
2022/06/18 06:30:12;;;;;;;17.27;13.50;;;24.70;99.90;;;;;;4798441;29;20058;-68
2022/06/18 06:32:38;;;;;;;20.80;14.10;;;24.70;99.90;;;;;;4803350;29;20055;-68
2022/06/18 06:35:04;;;;;;;19.13;14.20;;;24.70;99.90;;;;;;4803152;29;20443;-69
2022/06/18 06:37:29;;;;;;;19.02;13.55;;;24.90;99.90;;;;;;4803724;29;20059;-69
2022/06/18 06:39:55;;;;;;;19.38;13.05;;;25.00;99.90;;;;;;4790574;29;20495;-67
2022/06/18 06:42:21;;;;;;;19.90;13.60;;;24.90;99.90;;;;;;4789664;29;20397;-68
2022/06/18 06:44:46;;;;;;;22.30;14.10;;;24.40;99.90;;;;;;4789981;29;20486;-69
2022/06/18 06:47:12;;;;;;;20.48;13.85;;;23.80;99.90;;;;;;4790650;29;20062;-69
2022/06/18 06:49:37;;;;;;;17.95;12.85;;;23.60;99.90;;;;;;4776882;29;20400;-69
2022/06/18 06:52:03;;;;;;;17.40;12.43;;;23.30;99.90;;;;;;4808015;29;20162;-69
2022/06/18 06:54:29;;;;;;;18.88;11.98;;;23.20;99.90;;;;;;4791514;29;20095;-70
2022/06/18 06:59:39;;;;;;;15.98;11.02;;;22.90;99.90;;;;;;4791772;29;20055;-69
2022/06/18 07:02:15;;;;;;;18.30;11.48;;;22.80;99.90;;;;;;4790587;29;20059;-69
2022/06/18 07:04:40;;;;;;;16.75;10.52;;;22.80;99.90;;;;;;4805214;29;20050;-69
2022/06/18 07:07:06;;;;;;;15.70;10.90;;;22.90;99.90;;;;;;4791355;29;20115;-68
2022/06/18 07:09:32;;;;;;;12.30;9.68;;;23.00;99.90;;;;;;4791839;29;20452;-68
2022/06/18 07:11:57;;;;;;;16.50;10.52;;;23.20;99.90;;;;;;4807545;29;20054;-69
2022/06/18 07:14:23;;;;;;;13.05;9.52;;;23.30;99.90;;;;;;4807652;29;20053;-69
2022/06/18 07:16:51;;;;;;;14.13;8.23;;;23.40;99.90;;;;;;4790610;29;20115;-69
2022/06/18 07:19:18;;;;;;;14.80;8.77;;;23.50;99.90;;;;;;4808186;29;20318;-69
2022/06/18 07:21:43;;;;;;;15.18;7.88;;;23.60;99.90;;;;;;4790984;29;20395;-70
2022/06/18 07:24:09;;;;;;;13.27;7.78;;;23.60;99.90;;;;;;4807501;29;20046;-69
2022/06/18 07:26:35;;;;;;;12.52;7.88;;;23.80;99.90;;;;;;4807350;29;20106;-69
2022/06/18 07:29:01;;;;;;;11.85;6.63;;;23.90;99.90;;;;;;4791737;29;20050;-68
2022/06/18 07:31:29;;;;;;;9.98;7.13;;;24.00;99.90;;;;;;4790396;29;20280;-68
2022/06/18 07:33:55;;;;;;;13.77;6.78;;;24.10;99.90;;;;;;4791317;29;20066;-69
2022/06/18 07:36:21;;;;;;;8.98;5.57;;;24.20;99.90;;;;;;4790911;29;20063;-69
2022/06/18 07:38:47;;;;;;;9.18;7.20;;;24.30;99.90;;;;;;4791665;29;20058;-68
2022/06/18 07:41:16;;;;;;;10.10;6.78;;;24.30;99.90;;;;;;4791184;29;20500;-69
2022/06/18 07:43:50;;;;;;;11.02;6.28;;;24.30;99.90;;;;;;4807986;29;20388;-68
2022/06/18 07:46:15;;;;;;;11.68;6.18;;;24.40;99.90;;;;;;4789903;29;20066;-68
2022/06/18 07:48:43;;;;;;;8.68;6.45;;;24.30;99.90;;;;;;4790878;29;20437;-68
2022/06/18 07:51:09;;;;;;;10.90;6.00;;;24.30;99.90;;;;;;4791307;29;20138;-69
2022/06/18 07:53:35;;;;;;;13.52;5.80;;;24.30;99.90;;;;;;4790492;29;20129;-69
2022/06/18 07:56:01;;;;;;;11.38;6.10;;;24.50;99.90;;;;;;4790906;29;20151;-68
2022/06/18 07:58:27;;;;;;;12.20;6.38;;;24.50;99.90;;;;;;4791023;29;20234;-68
2022/06/18 08:00:53;;;;;;;11.75;6.25;;;24.60;99.90;;;;;;4807326;29;20058;-69
2022/06/18 08:03:19;;;;;;;11.30;5.82;;;24.70;99.90;;;;;;4807100;29;20165;-68
2022/06/18 08:05:46;;;;;;;10.13;5.05;;;24.70;99.90;;;;;;4806931;29;20078;-68
2022/06/18 08:08:13;;;;;;;9.20;5.63;;;24.70;99.90;;;;;;4789654;29;20130;-69
2022/06/18 08:10:40;;;;;;;9.98;5.30;;;24.90;99.90;;;;;;4806729;29;20396;-70
2022/06/18 08:13:06;;;;;;;8.50;5.80;;;24.80;99.90;;;;;;4806519;29;20046;-69
2022/06/18 08:15:32;;;;;;;10.05;5.80;;;24.80;99.90;;;;;;4790512;29;20431;-68
2022/06/18 08:17:58;;;;;;;10.45;5.80;;;24.80;99.90;;;;;;4805856;29;20058;-69
2022/06/18 08:20:26;;;;;;;7.78;5.15;;;24.80;99.90;;;;;;4807157;29;20070;-69
2022/06/18 08:22:55;;;;;;;10.38;5.47;;;24.90;99.90;;;;;;4789874;29;20053;-67
2022/06/18 08:25:23;;;;;;;8.65;5.50;;;25.00;99.90;;;;;;4806349;29;20046;-70
2022/06/18 08:27:50;;;;;;;7.30;4.80;;;25.20;99.90;;;;;;4790059;29;20067;-69
2022/06/18 08:30:16;;;;;;;8.18;4.28;;;25.30;99.90;;;;;;4790172;29;20055;-69
2022/06/18 08:32:42;;;;;;;7.07;4.50;;;25.40;99.90;;;;;;4789689;29;20053;-71
2022/06/18 08:35:08;;;;;;;11.48;5.30;;;25.50;99.90;;;;;;4806448;29;20078;-70
2022/06/18 08:37:34;;;;;;;7.45;3.97;;;25.40;99.90;;;;;;4789901;29;20138;-67
2022/06/18 08:40:02;;;;;;;7.72;4.75;;;25.50;99.90;;;;;;4789796;29;20059;-69
2022/06/18 08:42:49;;;;;;;7.45;4.97;;;25.60;99.90;;;;;;4806271;29;20047;-70
2022/06/18 08:45:19;;;;;;;10.32;5.10;;;25.50;99.90;;;;;;4790014;29;20059;-69
2022/06/18 08:48:11;;;;;;;10.18;4.63;;;25.50;99.90;;;;;;4788908;29;20055;-67
2022/06/18 08:50:36;;;;;;;8.57;4.13;;;25.50;99.90;;;;;;4789398;29;20057;-69
2022/06/18 08:53:12;;;;;;;7.50;4.65;;;25.50;99.90;;;;;;4789050;29;20126;-69
2022/06/18 08:55:53;;;;;;;6.82;3.72;;;25.60;99.90;;;;;;4803646;29;20066;-68
2022/06/18 08:58:24;;;;;;;;;;;25.60;99.90;;;;;;4772747;30;20461;-68
2022/06/18 09:01:05;;;;;;;5.80;4.13;;;25.60;99.90;;;;;;4771197;30;20371;-67
2022/06/18 09:04:00;;;;;;;6.00;4.20;;;25.70;99.90;;;;;;4787199;29;20066;-70
2022/06/18 09:07:03;;;;;;;6.60;4.25;;;25.70;99.90;;;;;;4800295;29;20126;-68
2022/06/18 09:09:41;;;;;;;5.85;3.83;;;25.70;99.90;;;;;;4737949;29;20130;-68
2022/06/18 09:12:14;;;;;;;7.60;3.58;;;25.70;99.90;;;;;;4801996;29;20494;-67
2022/06/18 09:15:06;;;;;;;7.60;4.28;;;25.80;99.90;;;;;;4788727;29;20059;-69
2022/06/18 09:17:44;;;;;;;7.05;3.35;;;25.90;99.90;;;;;;4803555;29;20050;-67
2022/06/18 09:20:31;;;;;;;6.03;3.65;;;25.90;99.90;;;;;;4805497;29;20055;-68
2022/06/18 09:23:04;;;;;;;6.38;4.15;;;25.80;99.90;;;;;;4804526;29;20054;-69
2022/06/18 09:25:35;;;;;;;6.65;3.70;;;25.80;99.90;;;;;;4788185;29;20130;-67
2022/06/18 09:28:04;;;;;;;7.00;3.97;;;25.90;99.90;;;;;;4805082;29;20061;-68
2022/06/18 09:30:37;;;;;;;6.20;3.90;;;25.80;99.90;;;;;;4805670;29;20066;-68
2022/06/18 09:33:10;;;;;;;5.97;3.35;;;26.00;99.90;;;;;;4774056;29;20055;-66
2022/06/18 09:36:01;;;;;;;9.70;3.60;;;26.00;99.90;;;;;;4805612;29;20370;-68
2022/06/18 09:39:08;;;;;;;8.43;3.90;;;26.10;99.90;;;;;;4789445;29;20078;-69
2022/06/18 09:41:43;;;;;;;4.95;3.20;;;26.20;99.90;;;;;;4734554;30;20369;-67
2022/06/18 09:44:35;;;;;;;7.82;3.08;;;26.30;99.90;;;;;;4799236;29;20103;-67
2022/06/18 09:47:08;;;;;;;5.35;3.60;;;26.50;99.00;;;;;;4801779;29;20123;-68
2022/06/18 09:49:35;;;;;;;3.95;2.78;;;26.60;99.80;;;;;;4788851;29;20058;-69
2022/06/18 09:52:10;;;;;;;5.97;3.47;;;26.50;99.90;;;;;;4773918;29;20053;-69
2022/06/18 09:54:40;;;;;;;6.35;3.70;;;26.60;99.90;;;;;;4786974;29;20098;-68
2022/06/18 09:57:06;;;;;;;6.90;3.75;;;26.60;99.90;;;;;;4786096;29;20054;-68
2022/06/18 09:59:35;;;;;;;11.48;3.95;;;26.70;99.90;;;;;;4802056;29;20496;-67
2022/06/18 10:02:02;;;;;;;5.63;3.85;;;26.70;99.90;;;;;;4802222;29;20124;-68
2022/06/18 10:07:24;;;;;;;8.05;3.65;;;26.70;99.90;;;;;;4802444;29;20074;-69
2022/06/18 10:10:05;;;;;;;4.80;3.53;;;26.80;99.90;;;;;;4804922;29;20082;-69
2022/06/18 10:12:37;;;;;;;7.05;3.60;;;26.70;99.90;;;;;;4787776;29;20078;-67
2022/06/18 10:15:09;;;;;;;7.13;3.58;;;26.70;99.90;;;;;;4806423;29;20061;-69
2022/06/18 10:18:13;;;;;;;7.80;3.40;;;26.70;99.90;;;;;;4806287;29;20054;-68
2022/06/18 10:20:44;;;;;;;7.65;3.50;;;26.80;99.90;;;;;;4805876;29;20397;-69
2022/06/18 10:23:26;;;;;;;4.57;3.58;;;26.90;99.90;;;;;;4807832;29;20441;-70
2022/06/18 10:26:13;;;;;;;9.13;3.85;;;26.90;99.90;;;;;;4806582;29;20047;-70
2022/06/18 10:28:44;;;;;;;4.97;3.50;;;26.90;99.90;;;;;;4775511;29;20093;-69
2022/06/18 10:31:23;;;;;;;9.13;3.65;;;26.90;99.90;;;;;;4806691;29;20115;-69
2022/06/18 10:34:16;;;;;;;5.50;3.60;;;27.10;99.90;;;;;;4774367;29;20166;-69
2022/06/18 10:37:09;;;;;;;8.55;4.43;;;27.10;99.90;;;;;;4806228;29;20494;-69
2022/06/18 10:39:47;;;;;;;8.80;3.80;;;27.10;99.90;;;;;;4814376;29;20130;-68
2022/06/18 10:42:34;;;;;;;9.45;3.72;;;26.80;99.90;;;;;;4792268;29;20054;-69
2022/06/18 10:45:08;;;;;;;5.97;3.42;;;26.70;99.90;;;;;;4805967;29;20548;-69
2022/06/18 10:47:38;;;;;;;5.13;2.85;;;26.70;99.90;;;;;;4805443;29;20058;-69
2022/06/18 10:50:11;;;;;;;8.57;3.92;;;26.70;99.90;;;;;;4785943;29;20080;-69
2022/06/18 10:52:37;;;;;;;6.80;3.40;;;26.70;99.90;;;;;;4790879;29;20122;-69
2022/06/18 10:55:19;;;;;;;7.05;3.00;;;26.80;99.90;;;;;;4791701;29;20129;-69
2022/06/18 10:57:45;;;;;;;4.60;2.90;;;26.90;99.90;;;;;;4807231;29;20125;-69
2022/06/18 11:00:26;;;;;;;5.60;3.42;;;27.00;99.90;;;;;;4792056;29;20058;-68
2022/06/18 11:02:54;;;;;;;4.65;3.10;;;27.00;99.60;;;;;;4791043;29;20074;-69
2022/06/18 11:05:37;;;;;;;6.63;2.80;;;27.00;99.90;;;;;;4802926;29;20391;-69
2022/06/18 11:08:19;;;;;;;5.47;2.72;;;27.10;99.90;;;;;;4788256;29;20055;-69
2022/06/18 11:11:06;;;;;;;6.90;3.35;;;27.20;99.90;;;;;;4801876;29;20055;-68
2022/06/18 11:13:36;;;;;;;5.15;2.83;;;27.20;99.90;;;;;;4807572;29;20063;-69
2022/06/18 11:16:15;;;;;;;3.15;2.65;;;27.30;98.90;;;;;;4807277;29;20388;-68
2022/06/18 11:18:51;;;;;;;6.57;3.33;;;27.40;95.10;;;;;;4791678;29;20284;-70
2022/06/18 11:21:33;;;;;;;5.82;2.70;;;27.40;98.80;;;;;;4807739;29;20094;-68
2022/06/18 11:24:21;;;;;;;5.68;3.20;;;27.50;99.90;;;;;;4791435;29;20062;-68
2022/06/18 11:26:49;;;;;;;5.10;2.50;;;27.70;98.30;;;;;;4792510;29;20047;-70
2022/06/18 11:29:42;;;;;;;6.80;2.78;;;27.80;99.60;;;;;;4789763;29;20086;-68
2022/06/18 11:32:20;;;;;;;6.00;2.85;;;27.90;97.90;;;;;;4804888;29;20515;-68
2022/06/18 11:34:51;;;;;;;4.60;2.30;;;27.80;99.90;;;;;;4790698;29;20066;-69
2022/06/18 11:37:24;;;;;;;3.72;2.03;;;27.80;93.90;;;;;;4790143;29;20058;-67
2022/06/18 11:40:03;;;;;;;4.55;2.45;;;27.90;94.80;;;;;;4807487;29;20047;-68
2022/06/18 11:42:50;;;;;;;4.68;2.22;;;27.80;92.30;;;;;;4776771;29;20058;-68
2022/06/18 11:45:35;;;;;;;4.95;3.00;;;27.60;95.10;;;;;;4790574;29;20147;-69
2022/06/18 11:48:25;;;;;;;6.85;2.85;;;27.50;98.10;;;;;;4775411;29;20043;-69
2022/06/18 11:51:16;;;;;;;5.38;2.85;;;27.60;95.50;;;;;;4807382;29;20134;-70
2022/06/18 11:54:01;;;;;;;;;;;27.70;89.70;;;;;;4777362;29;20107;-70
2022/06/18 11:56:50;;;;;;;5.20;2.58;;;27.60;97.60;;;;;;4789589;29;20038;-69
2022/06/18 11:59:23;;;;;;;5.70;2.78;;;27.70;99.10;;;;;;4776806;29;20050;-69
2022/06/18 12:01:53;;;;;;;4.95;2.50;;;27.90;94.80;;;;;;4790299;29;20065;-70
2022/06/18 12:04:46;;;;;;;5.90;2.43;;;27.90;93.70;;;;;;4807192;29;20133;-68
2022/06/18 12:07:36;;;;;;;7.07;2.50;;;28.00;90.70;;;;;;4806232;29;20074;-69
2022/06/18 12:10:04;;;;;;;4.35;2.25;;;28.10;86.70;;;;;;4806903;29;20130;-69
2022/06/18 12:12:41;;;;;;;6.30;2.70;;;28.20;89.20;;;;;;4790444;29;20469;-69
2022/06/18 12:15:25;;;;;;;4.18;2.30;;;28.30;90.60;;;;;;4790437;29;20408;-69
2022/06/18 12:18:28;;;;;;;4.90;2.42;;;28.30;91.50;;;;;;4806132;29;20112;-68
2022/06/18 12:21:20;;;;;;;2.88;1.83;;;28.50;94.30;;;;;;4789701;29;20271;-70
2022/06/18 12:23:57;;;;;;;4.22;2.03;;;28.70;92.60;;;;;;4786662;29;20055;-69
2022/06/18 12:26:41;;;;;;;4.90;2.63;;;28.60;91.80;;;;;;4807101;29;20073;-69
2022/06/18 12:29:15;;;;;;;7.70;2.53;;;28.40;87.50;;;;;;4805428;29;20055;-70
2022/06/18 12:31:47;;;;;;;5.97;2.17;;;28.20;93.80;;;;;;4805366;29;20397;-69
2022/06/18 12:34:41;;;;;;;4.22;2.35;;;28.10;95.60;;;;;;4790557;29;20063;-69
2022/06/18 12:37:20;;;;;;;3.47;1.85;;;27.80;98.30;;;;;;4790355;29;20413;-70
2022/06/18 12:39:57;;;;;;;3.42;2.17;;;27.50;99.90;;;;;;4806590;29;20065;-69
2022/06/18 12:42:32;;;;;;;2.90;1.73;;;27.60;99.90;;;;;;4789680;29;20047;-68
2022/06/18 12:45:17;;;;;;;3.92;1.75;;;27.60;99.90;;;;;;4806227;29;20090;-69
2022/06/18 12:48:05;;;;;;;4.15;2.10;;;27.70;99.80;;;;;;4774242;29;20082;-69
2022/06/18 12:50:40;;;;;;;2.38;1.98;;;27.70;99.90;;;;;;4804987;29;20055;-69
2022/06/18 12:53:51;;;;;;;4.53;1.60;;;27.70;99.90;;;;;;4789476;29;20119;-69
2022/06/18 12:56:44;;;;;;;4.05;1.85;;;27.50;99.90;;;;;;4773953;29;20059;-70
2022/06/18 12:59:31;;;;;;;4.82;2.05;;;27.40;99.90;;;;;;4781158;29;20571;-68
2022/06/18 13:02:05;;;;;;;5.20;1.80;;;27.30;99.90;;;;;;4798788;29;20108;-70
2022/06/18 13:04:52;;;;;;;3.00;1.63;;;27.20;99.90;;;;;;4809815;29;20099;-69
2022/06/18 13:07:38;;;;;;;3.95;1.73;;;27.10;99.90;;;;;;4798247;29;20492;-69
2022/06/18 13:10:23;;;;;;;4.35;1.55;;;26.80;99.90;;;;;;4803522;29;20226;-68
2022/06/18 13:13:08;;;;;;;4.13;1.52;;;26.80;99.90;;;;;;4798328;29;20074;-68
2022/06/18 13:15:38;;;;;;;3.50;1.60;;;26.90;99.90;;;;;;4794707;29;20059;-70
2022/06/18 13:18:28;;;;;;;2.50;1.67;;;26.70;99.90;;;;;;4798236;29;20050;-69
2022/06/18 13:20:57;;;;;;;4.35;1.40;;;26.80;99.90;;;;;;4811452;29;20097;-68